Details From SBFZ - Pinto Martins
To SBTE - Senador Petronio Portella
Flight Number -
Tags generated
Created
Modified
Stats Distance 269 nm / 498 km
Max Altitude 24,500 ft / 7,468 m
Waypoints 4
Social Downloads 1
Likes 0
Share

Download

Looking for another format? Having issues loading an existing format? Contact us
Advertisement - Login to hide

Notes

Basic altitude profile: - Ascent Rate: 2500ft/min - Ascent Speed: 250kts - Cruise Altitude: 35000ft - Cruise Speed: 450kts - Descent Rate: 1800ft/min - Descent Speed: 250kts Options: - Use NATs: yes - Use PACOTS: yes - Use low airways: no - Use high airways: yes

Route

SBFZ FLZ UW44 TRS SBTE

ID Type Via Altitude (ft/m) Position (lat/lon) Dist (leg/tot) Name
O SBFZ APT - 0 / 0 -3.77628 / -38.53256 - / 0 nm Pinto Martins
FLZ VOR - 300 / 91 -3.77227 / -38.54769 0 / 0 nm FORTALEZA VOR-DME
TRS VOR UW44 (AWY-HI) 24,500 / 7,468 -5.06618 / -42.82489 267 / 268 nm TERESINA VOR-DME
O SBTE APT - 0 / 0 -5.05994 / -42.82348 0 / 268 nm Senador Petronio Portella

Altitude Profile

Advertisement - Login to hide

Weather


0- 5 10 15 20 25 30 35+ Temperature / °C

Clouds and Precipitation
Forecast for 2020-08-07 00:00 UTC. Updated 6 hours ago

Ground ~20,000 ft ~40,000 ft Winds

SBFZ

Details ICAO SBFZ (FOR)
Name Pinto Martins Intl
Region Brazil
Timezone America/Fortaleza (UTC-3.0)
Stats Elevation 82 ft / 25 m (AMSL)
Location -3.776300° -38.532600°
Runways 1
Magnetic Variation 21.028° W

METAR

SBFZ 070300Z 10020KT CAVOK 26/21 Q1016

Decode

TAF

TAF SBFZ 062100Z 0700/0724 09008KT CAVOK TN23/0709Z TX32/0715Z BECMG 0703/0705 14010KT BECMG 0711/0713 14016KT BECMG 0714/0716 9999 FEW030 BECMG 0718/0720 09014KT CAVOK BECMG 0721/0723 09007KT RMK PAY

Decode

Departure Runways

ID Width Length Bearing (true/mag) Surface Threshold Overrun Markings Lighting
13 148 ft / 45 m 8,367 ft / 2,550 m 105.02° / 126.05° ASPHALT 0 ft / 0 m 187 ft / 57 m PREC-APP EDGE THRESHOLD
31 148 ft / 45 m 8,367 ft / 2,550 m 285.02° / 306.05° ASPHALT 0 ft / 0 m 138 ft / 42 m PREC-APP EDGE THRESHOLD

SBTE

Details ICAO SBTE (THE)
Name Teresina-Senador Petronio Portella
Region Brazil
Timezone America/Fortaleza (UTC-3.0)
Stats Elevation 220 ft / 67 m (AMSL)
Location -5.060010° -42.823700°
Runways 1
Magnetic Variation 21.544° W

METAR

SBTE 070300Z 16007KT CAVOK 27/15 Q0108

Decode

TAF

TAF SBTE 062100Z 0700/0712 16008KT CAVOK TX28/0700Z TN24/0709Z BECMG 0704/0706 14005KT BECMG 0711/0712 15010KT RMK PAY

Decode

Destination Runways

ID Width Length Bearing (true/mag) Surface Threshold Overrun Markings Lighting
02 148 ft / 45 m 7,246 ft / 2,209 m 354.05° / 15.59° ASPHALT 0 ft / 0 m 197 ft / 60 m PREC-APP CENTERLINE EDGE THRESHOLD REIL-OMNI
20 148 ft / 45 m 7,246 ft / 2,209 m 174.05° / 195.59° ASPHALT 0 ft / 0 m 197 ft / 60 m PREC-APP CENTERLINE EDGE THRESHOLD REIL-OMNI

Popular Alternatives